Burkeville, Texas
Current Conditions -  °F | °C
As of 9:55 AM on Friday 28 Nov 2014 (Local Time) from KJAS Reporting Station
Clear Clear  
Wind Chill: 51°   Ceiling: Unl
Heat Index: 51°   Visibility: 10mi
Dew Point: 40°   Wind: 3mph
Humidity: 64%   Direction: 150°SSE
Pressure: 30.39"   Gusts: NA
Location:  31°N, 93.67°W
Report Text: KJAS 281555Z AUTO 15003KT 10SM CLR 11/04 A3039 RMK AO2 T01080043
Loading
Personal Weather Stations






























Interactive Weather Map New forecast layout! Learn more

10-Day Weather Forecast

Advertisements
Track Severe Weather on mobile